Time;durP1;ratioP1;P1;durP2;ratioP2;P2;SDS_P1;SDS_P2;PMS_P1;PMS_P2;Temp;Humidity;BMP_temperature;BMP_pressure;BME280_temperature;BME280_humidity;BME280_pressure;Samples;Min_cycle;Max_cycle;Signal;HPM_P1;HPM_P2
2022/10/08 00:00:50;;;;;;;3.50;1.25;;;15.20;94.30;;;;;;9993292;29;20038;-63
2022/10/08 00:06:28;;;;;;;4.22;1.33;;;15.20;94.30;;;;;;9994255;29;20057;-64
2022/10/08 00:11:48;;;;;;;4.53;1.60;;;15.20;94.30;;;;;;9995461;29;20424;-63
2022/10/08 00:17:07;;;;;;;5.60;1.40;;;15.20;94.40;;;;;;9989059;29;20463;-64
2022/10/08 00:22:26;;;;;;;4.38;1.20;;;15.20;94.40;;;;;;9989590;29;20038;-64
2022/10/08 00:27:45;;;;;;;2.00;1.20;;;15.20;94.50;;;;;;9988184;29;20394;-65
2022/10/08 00:33:06;;;;;;;6.55;1.30;;;15.20;94.50;;;;;;9975762;29;20404;-63
2022/10/08 00:38:25;;;;;;;5.50;1.50;;;15.20;94.50;;;;;;9984970;29;20057;-64
2022/10/08 00:43:48;;;;;;;5.90;1.75;;;15.10;94.50;;;;;;9986767;29;20046;-64
2022/10/08 00:49:19;;;;;;;3.83;1.35;;;15.10;94.60;;;;;;9982319;29;20685;-63
2022/10/08 00:54:39;;;;;;;5.70;1.90;;;15.10;94.60;;;;;;9992897;29;20117;-64
2022/10/08 00:59:59;;;;;;;3.97;1.30;;;15.10;94.60;;;;;;9995280;29;20467;-64
2022/10/08 01:05:42;;;;;;;3.28;1.20;;;15.10;94.70;;;;;;9994574;29;20053;-64
2022/10/08 01:11:09;;;;;;;2.92;1.30;;;15.10;94.80;;;;;;9970078;29;20136;-64
2022/10/08 01:16:54;;;;;;;6.13;1.70;;;15.10;94.80;;;;;;9998063;29;21399;-64
2022/10/08 01:23:02;;;;;;;4.45;1.40;;;15.10;94.80;;;;;;9986106;29;20034;-64
2022/10/08 01:28:31;;;;;;;2.15;1.50;;;15.10;94.90;;;;;;9976711;29;20046;-63
2022/10/08 01:34:01;;;;;;;4.32;1.40;;;15.10;94.90;;;;;;9995533;29;20033;-63
2022/10/08 01:39:26;;;;;;;2.50;1.30;;;15.10;94.90;;;;;;10003008;29;20038;-63
2022/10/08 01:44:53;;;;;;;3.45;1.30;;;15.00;94.90;;;;;;9997757;29;20496;-65
2022/10/08 01:50:20;;;;;;;2.67;1.30;;;15.00;95.00;;;;;;9993022;29;20046;-64
2022/10/08 01:55:42;;;;;;;3.63;1.38;;;15.00;95.00;;;;;;9996361;29;20058;-64
2022/10/08 02:01:09;;;;;;;2.70;0.98;;;15.00;95.00;;;;;;9988940;29;20034;-64
2022/10/08 02:06:31;;;;;;;2.97;1.20;;;15.00;95.10;;;;;;9994201;29;20125;-65
2022/10/08 02:11:51;;;;;;;2.28;1.00;;;15.00;95.10;;;;;;9997476;29;20034;-64
2022/10/08 02:17:23;;;;;;;3.10;1.17;;;15.00;95.10;;;;;;9994030;29;20072;-64
2022/10/08 02:23:00;;;;;;;2.58;1.20;;;15.00;95.10;;;;;;9995278;29;20045;-64
2022/10/08 02:28:42;;;;;;;2.58;1.10;;;14.90;95.20;;;;;;10000911;29;20395;-66
2022/10/08 02:34:31;;;;;;;3.20;1.25;;;14.90;95.20;;;;;;9993319;29;20474;-65
2022/10/08 02:39:59;;;;;;;3.70;1.27;;;14.90;95.20;;;;;;9996940;29;20644;-64
2022/10/08 02:45:23;;;;;;;4.97;1.20;;;14.90;95.20;;;;;;9991467;29;20497;-64
2022/10/08 02:50:47;;;;;;;1.80;1.20;;;14.90;95.20;;;;;;9995197;29;20053;-64
2022/10/08 02:56:37;;;;;;;1.67;1.10;;;14.90;95.30;;;;;;9994443;29;20043;-64
2022/10/08 03:01:59;;;;;;;3.50;1.00;;;14.80;95.30;;;;;;9994154;29;20034;-63
2022/10/08 03:07:21;;;;;;;1.80;0.85;;;14.80;95.30;;;;;;9987735;29;20070;-63
2022/10/08 03:12:41;;;;;;;2.85;1.02;;;14.80;95.30;;;;;;9994943;29;20422;-63
2022/10/08 03:18:03;;;;;;;2.80;0.98;;;14.80;95.30;;;;;;9997778;29;20065;-64
2022/10/08 03:23:23;;;;;;;2.22;0.90;;;14.80;95.30;;;;;;9983338;29;20038;-63
2022/10/08 03:28:42;;;;;;;2.42;0.80;;;14.80;95.30;;;;;;9986940;29;20046;-63
2022/10/08 03:34:02;;;;;;;1.33;1.00;;;15.00;95.40;;;;;;9997337;29;20041;-64
2022/10/08 03:39:21;;;;;;;1.15;0.77;;;14.70;95.30;;;;;;9995134;29;20054;-63
2022/10/08 03:44:40;;;;;;;2.88;1.30;;;14.70;95.30;;;;;;9993725;29;20054;-64
2022/10/08 03:50:01;;;;;;;1.60;0.70;;;14.70;95.40;;;;;;9998082;29;20050;-64
2022/10/08 03:55:20;;;;;;;2.45;0.80;;;14.70;95.40;;;;;;9983762;29;20411;-64
2022/10/08 04:00:40;;;;;;;2.28;0.80;;;14.70;95.40;;;;;;9991361;29;20034;-64
2022/10/08 04:05:59;;;;;;;1.88;0.90;;;14.70;95.40;;;;;;9981482;29;20050;-64
2022/10/08 04:11:19;;;;;;;1.77;0.80;;;14.70;95.40;;;;;;9988680;29;20042;-64
2022/10/08 04:16:38;;;;;;;3.60;0.90;;;14.70;95.40;;;;;;9992575;29;20034;-63
2022/10/08 04:21:57;;;;;;;1.15;0.68;;;14.70;95.50;;;;;;9992526;29;20034;-64
2022/10/08 04:27:16;;;;;;;3.17;0.93;;;14.60;95.40;;;;;;9992248;29;20042;-64
2022/10/08 04:32:36;;;;;;;2.35;0.80;;;14.60;95.40;;;;;;9993175;29;20421;-64
2022/10/08 04:37:55;;;;;;;2.22;1.00;;;14.70;95.50;;;;;;9993468;29;20304;-64
2022/10/08 04:43:14;;;;;;;2.95;0.98;;;14.60;95.40;;;;;;9988148;29;20041;-64
2022/10/08 04:48:34;;;;;;;2.35;1.00;;;14.60;95.50;;;;;;9989718;29;20073;-64
2022/10/08 04:53:55;;;;;;;4.72;0.73;;;14.60;95.50;;;;;;9993331;29;20046;-64
2022/10/08 04:59:14;;;;;;;4.38;0.80;;;14.60;95.50;;;;;;9988114;29;20433;-65
2022/10/08 05:04:33;;;;;;;1.95;0.80;;;14.60;95.50;;;;;;9986086;29;20039;-64
2022/10/08 05:09:52;;;;;;;1.90;0.77;;;14.60;95.50;;;;;;9996794;29;20038;-63
2022/10/08 05:15:12;;;;;;;1.90;0.80;;;14.60;95.50;;;;;;9991860;29;20137;-63
2022/10/08 05:20:31;;;;;;;1.35;0.70;;;14.60;95.60;;;;;;9989045;29;20027;-63
2022/10/08 05:25:50;;;;;;;1.23;0.60;;;14.60;95.60;;;;;;9987086;29;20054;-63
2022/10/08 05:31:10;;;;;;;1.35;0.80;;;14.50;95.50;;;;;;9993935;29;20430;-64
2022/10/08 05:36:31;;;;;;;1.27;0.80;;;14.50;95.60;;;;;;9988895;29;20645;-64
2022/10/08 05:41:50;;;;;;;2.10;0.70;;;14.60;95.60;;;;;;9986255;29;20050;-64
2022/10/08 05:47:10;;;;;;;3.75;0.95;;;14.50;95.60;;;;;;9990148;29;20058;-64
2022/10/08 05:52:30;;;;;;;2.28;1.02;;;14.50;95.60;;;;;;9988969;29;20476;-68
2022/10/08 05:57:49;;;;;;;1.77;0.70;;;14.50;95.60;;;;;;9989337;29;20050;-64
2022/10/08 06:03:09;;;;;;;2.67;0.90;;;14.40;95.60;;;;;;9986514;29;20050;-64
2022/10/08 06:08:28;;;;;;;2.10;0.80;;;14.40;95.60;;;;;;9978017;29;20042;-63
2022/10/08 06:13:52;;;;;;;3.42;0.90;;;14.40;95.60;;;;;;9918812;29;20439;-68
2022/10/08 06:19:11;;;;;;;3.13;0.98;;;14.40;95.60;;;;;;9904931;29;20030;-63
2022/10/08 06:24:31;;;;;;;2.15;0.70;;;14.40;95.60;;;;;;9904789;29;20067;-63
2022/10/08 06:29:50;;;;;;;2.45;0.80;;;14.40;95.60;;;;;;9907962;29;20540;-65
2022/10/08 06:35:09;;;;;;;1.73;0.88;;;14.40;95.60;;;;;;9910883;29;20074;-64
2022/10/08 06:40:38;;;;;;;2.83;1.00;;;14.40;95.60;;;;;;9908584;29;20071;-64
2022/10/08 06:46:03;;;;;;;2.08;1.00;;;14.40;95.60;;;;;;9906340;29;20213;-62
2022/10/08 06:51:23;;;;;;;4.03;1.23;;;14.40;95.60;;;;;;9905700;29;20051;-62
2022/10/08 06:56:42;;;;;;;1.80;0.90;;;14.40;95.60;;;;;;9910378;29;20073;-67
2022/10/08 07:02:02;;;;;;;1.17;0.85;;;14.40;95.60;;;;;;9909583;29;20046;-63
2022/10/08 07:07:21;;;;;;;2.00;1.02;;;14.50;95.60;;;;;;9906683;29;20093;-63
2022/10/08 07:12:41;;;;;;;1.90;0.90;;;14.50;95.80;;;;;;9906878;29;20087;-64
2022/10/08 07:18:00;;;;;;;6.82;1.00;;;14.50;95.50;;;;;;9916361;29;20475;-63
2022/10/08 07:23:19;;;;;;;2.38;1.00;;;14.50;95.50;;;;;;9908981;29;20308;-63
2022/10/08 07:28:42;;;;;;;1.80;0.90;;;14.50;95.50;;;;;;9900961;29;21039;-62
2022/10/08 07:34:05;;;;;;;3.65;1.13;;;14.50;95.60;;;;;;9907326;29;20292;-62
2022/10/08 07:39:26;;;;;;;5.43;1.23;;;14.60;95.60;;;;;;9898572;29;20875;-62
2022/10/08 07:44:45;;;;;;;2.10;0.80;;;14.70;95.50;;;;;;9906857;29;20288;-62
2022/10/08 07:50:05;;;;;;;1.63;0.80;;;14.80;95.40;;;;;;9911313;29;20062;-61
2022/10/08 07:55:25;;;;;;;3.00;1.00;;;14.90;95.40;;;;;;9897750;29;20066;-61
2022/10/08 08:00:44;;;;;;;2.65;1.00;;;15.00;95.30;;;;;;9907025;29;20651;-62
2022/10/08 08:06:06;;;;;;;6.45;1.10;;;15.00;95.20;;;;;;9909378;29;20062;-61
2022/10/08 08:11:26;;;;;;;3.25;0.77;;;15.10;95.30;;;;;;9912892;29;20834;-65
2022/10/08 08:16:46;;;;;;;2.78;1.08;;;15.20;95.30;;;;;;9901430;29;20046;-60
2022/10/08 08:22:06;;;;;;;3.78;1.02;;;15.20;95.20;;;;;;9902719;29;20775;-61
2022/10/08 08:27:25;;;;;;;4.60;0.90;;;15.30;95.10;;;;;;9900438;29;20097;-60
2022/10/08 08:32:45;;;;;;;2.35;1.10;;;15.30;95.10;;;;;;9903961;29;20042;-61
2022/10/08 08:38:04;;;;;;;3.45;0.90;;;15.40;95.00;;;;;;9904190;29;20054;-61
2022/10/08 08:43:24;;;;;;;2.75;0.85;;;15.40;95.20;;;;;;9898916;29;20037;-63
2022/10/08 08:48:45;;;;;;;4.07;0.73;;;15.30;95.10;;;;;;9904000;29;21010;-61
2022/10/08 08:54:04;;;;;;;3.10;0.90;;;15.10;95.20;;;;;;9906886;29;20354;-63
2022/10/08 08:59:31;;;;;;;5.45;1.08;;;15.10;95.30;;;;;;9902135;29;20352;-61
2022/10/08 09:05:06;;;;;;;3.47;0.70;;;15.10;95.30;;;;;;9901952;29;20434;-61
2022/10/08 09:10:37;;;;;;;4.13;0.85;;;15.00;95.30;;;;;;9893716;29;20901;-65
2022/10/08 09:15:58;;;;;;;7.60;1.00;;;15.00;95.40;;;;;;9903679;29;20046;-63
2022/10/08 09:21:18;;;;;;;2.05;0.80;;;15.00;95.30;;;;;;9902039;29;20114;-63
2022/10/08 09:26:37;;;;;;;1.85;0.65;;;15.10;95.30;;;;;;9892917;29;20855;-60
2022/10/08 09:31:57;;;;;;;4.60;0.70;;;15.20;95.20;;;;;;9908926;29;20483;-60
2022/10/08 09:37:24;;;;;;;9.40;0.73;;;15.30;95.00;;;;;;9908199;29;20039;-60
2022/10/08 09:42:51;;;;;;;6.90;0.73;;;15.40;94.80;;;;;;9911613;29;20054;-61
2022/10/08 09:48:21;;;;;;;3.63;0.57;;;15.40;94.60;;;;;;9909788;29;20508;-61
2022/10/08 09:53:45;;;;;;;4.80;0.85;;;15.60;94.30;;;;;;9910321;29;20046;-64
2022/10/08 09:59:06;;;;;;;4.57;0.75;;;15.60;94.30;;;;;;9908977;29;20050;-64
2022/10/08 10:04:35;;;;;;;6.03;0.90;;;15.60;94.20;;;;;;9917113;29;20507;-60
2022/10/08 10:09:57;;;;;;;6.75;0.80;;;15.60;94.10;;;;;;9911820;29;20042;-61
2022/10/08 10:15:28;;;;;;;7.15;0.55;;;15.70;93.90;;;;;;9914714;29;20046;-62
2022/10/08 10:20:57;;;;;;;9.05;1.40;;;15.80;93.50;;;;;;9915228;29;20038;-61
2022/10/08 10:26:40;;;;;;;5.88;0.82;;;15.70;94.10;;;;;;9910998;29;20381;-60
2022/10/08 10:32:09;;;;;;;4.38;1.10;;;15.70;94.10;;;;;;9910500;29;20588;-61
2022/10/08 10:37:37;;;;;;;6.22;0.90;;;15.70;94.30;;;;;;9905430;29;20034;-66
2022/10/08 10:43:28;;;;;;;3.67;0.73;;;15.60;94.40;;;;;;9902292;29;20084;-61
2022/10/08 10:48:48;;;;;;;7.05;0.85;;;15.60;94.50;;;;;;9895398;29;20062;-61
2022/10/08 10:54:37;;;;;;;5.45;0.88;;;15.60;94.60;;;;;;9908899;29;20034;-60
2022/10/08 11:00:03;;;;;;;3.38;0.70;;;15.60;94.70;;;;;;9905037;29;20042;-61
2022/10/08 11:05:26;;;;;;;3.97;0.60;;;15.60;94.80;;;;;;9905673;29;20058;-60
2022/10/08 11:11:04;;;;;;;3.13;0.60;;;15.60;94.80;;;;;;9899041;29;20394;-60
2022/10/08 11:16:26;;;;;;;5.85;0.90;;;15.60;95.00;;;;;;9902532;29;20490;-61
2022/10/08 11:22:15;;;;;;;2.55;0.90;;;15.70;94.80;;;;;;9901141;29;20085;-61
2022/10/08 11:27:34;;;;;;;6.70;1.02;;;15.80;94.80;;;;;;9893042;29;20046;-61
2022/10/08 11:32:55;;;;;;;7.28;1.30;;;15.80;94.80;;;;;;9905600;29;20329;-62
2022/10/08 11:38:39;;;;;;;2.40;0.55;;;15.90;94.70;;;;;;9910099;29;20038;-63
2022/10/08 11:44:09;;;;;;;3.13;0.90;;;16.00;94.70;;;;;;9906428;29;20050;-62
2022/10/08 11:49:46;;;;;;;5.15;0.75;;;16.00;93.50;;;;;;9908184;29;20050;-62
2022/10/08 11:55:24;;;;;;;3.33;0.60;;;16.00;92.40;;;;;;9904546;29;20277;-73
2022/10/08 12:00:47;;;;;;;5.60;0.90;;;16.10;92.60;;;;;;9888588;29;20046;-62
2022/10/08 12:06:12;;;;;;;4.95;0.60;;;16.10;92.40;;;;;;9905228;29;20053;-60
2022/10/08 12:11:31;;;;;;;3.90;1.08;;;16.30;91.90;;;;;;9898259;29;20034;-62
2022/10/08 12:16:54;;;;;;;4.95;1.10;;;16.30;91.70;;;;;;9914147;29;20049;-62
2022/10/08 12:22:16;;;;;;;9.02;2.30;;;16.00;91.30;;;;;;9893859;29;20034;-66
2022/10/08 12:27:36;;;;;;;9.13;2.60;;;16.10;91.20;;;;;;9905168;29;20934;-62
2022/10/08 12:32:56;;;;;;;11.07;2.35;;;16.10;91.30;;;;;;9907863;29;20029;-61
2022/10/08 12:38:22;;;;;;;8.93;1.77;;;16.20;91.20;;;;;;9895653;29;20038;-61
2022/10/08 12:44:01;;;;;;;6.32;1.20;;;16.40;90.70;;;;;;9902733;29;20033;-63
2022/10/08 12:49:31;;;;;;;4.65;0.80;;;16.50;90.50;;;;;;9905204;29;20114;-61
2022/10/08 12:55:00;;;;;;;5.22;0.70;;;16.50;89.30;;;;;;9901417;29;20049;-64
2022/10/08 13:00:22;;;;;;;4.50;0.65;;;16.50;88.50;;;;;;9904854;29;20038;-62
2022/10/08 13:05:43;;;;;;;5.25;1.02;;;16.40;90.10;;;;;;9904600;29;20085;-62
2022/10/08 13:11:11;;;;;;;5.30;0.60;;;16.30;90.10;;;;;;9901283;29;20784;-62
2022/10/08 13:16:44;;;;;;;4.18;0.57;;;16.10;90.10;;;;;;9908319;29;20045;-61
2022/10/08 13:22:23;;;;;;;6.13;0.90;;;16.00;89.70;;;;;;9905749;29;20034;-62
2022/10/08 13:27:43;;;;;;;6.57;1.27;;;16.10;88.70;;;;;;9898852;29;20489;-61
2022/10/08 13:33:16;;;;;;;5.07;0.88;;;16.10;90.40;;;;;;9901773;29;20050;-61
2022/10/08 13:38:35;;;;;;;6.53;0.93;;;16.20;90.10;;;;;;9885132;29;20137;-63
2022/10/08 13:43:54;;;;;;;4.75;1.00;;;16.40;90.20;;;;;;9886846;29;20596;-61
2022/10/08 13:49:28;;;;;;;5.82;1.10;;;16.70;90.10;;;;;;9896616;29;20924;-62
2022/10/08 13:54:50;;;;;;;4.28;0.85;;;17.00;89.10;;;;;;9900735;29;20034;-62
2022/10/08 14:00:13;;;;;;;5.75;1.05;;;17.20;90.00;;;;;;9901982;29;20334;-61
2022/10/08 14:05:39;;;;;;;4.93;0.80;;;17.30;89.60;;;;;;9910963;29;20050;-70
2022/10/08 14:10:59;;;;;;;3.97;1.00;;;17.30;89.40;;;;;;9906856;29;20046;-61
2022/10/08 14:16:18;;;;;;;7.35;1.08;;;17.30;89.20;;;;;;9906800;29;20153;-64
2022/10/08 14:21:39;;;;;;;9.18;0.90;;;17.40;89.40;;;;;;9906937;29;20046;-71
2022/10/08 14:26:58;;;;;;;5.65;1.42;;;17.50;88.80;;;;;;9902500;29;20058;-63
2022/10/08 14:32:17;;;;;;;6.57;0.80;;;17.30;89.20;;;;;;9909052;29;20077;-62
2022/10/08 14:37:37;;;;;;;7.63;1.20;;;16.70;90.10;;;;;;9910111;29;20591;-62
2022/10/08 14:42:56;;;;;;;11.50;1.10;;;16.50;90.60;;;;;;9928306;29;20038;-65
2022/10/08 14:48:16;;;;;;;8.07;1.60;;;16.40;90.80;;;;;;9899993;29;20530;-68
2022/10/08 14:53:35;;;;;;;8.23;1.27;;;16.60;90.90;;;;;;9908168;29;20045;-63
2022/10/08 14:58:54;;;;;;;7.25;1.52;;;16.90;90.60;;;;;;9904891;29;20352;-63
2022/10/08 15:04:14;;;;;;;5.00;1.00;;;16.80;90.40;;;;;;9907939;29;20070;-63
2022/10/08 15:09:36;;;;;;;4.65;0.80;;;16.70;90.50;;;;;;9916589;29;20586;-66
2022/10/08 15:14:55;;;;;;;7.68;1.73;;;16.40;90.50;;;;;;9913660;29;20127;-62
2022/10/08 15:20:14;;;;;;;7.68;1.23;;;16.30;90.70;;;;;;9951482;24;20598;-69
2022/10/08 15:25:33;;;;;;;8.57;1.50;;;16.10;90.80;;;;;;9916563;29;20161;-66
2022/10/08 15:31:13;;;;;;;5.18;0.90;;;16.00;91.00;;;;;;9905600;29;20465;-63
2022/10/08 15:36:35;;;;;;;5.53;1.35;;;15.80;90.70;;;;;;9907936;29;20038;-76
2022/10/08 15:41:55;;;;;;;14.07;2.63;;;15.70;91.20;;;;;;9901510;29;21332;-62
2022/10/08 15:47:31;;;;;;;8.48;1.70;;;15.60;91.40;;;;;;9899897;29;20050;-61
2022/10/08 15:52:51;;;;;;;7.50;1.95;;;15.60;91.60;;;;;;9890730;24;20744;-65
2022/10/08 15:58:10;;;;;;;8.95;3.97;;;15.50;91.60;;;;;;9870312;29;20042;-75
2022/10/08 16:03:43;;;;;;;22.33;9.90;;;15.40;91.80;;;;;;9897995;29;20046;-62
2022/10/08 16:09:03;;;;;;;18.95;3.92;;;15.30;92.00;;;;;;9907206;29;20054;-65
2022/10/08 16:14:25;;;;;;;10.70;2.13;;;15.10;92.30;;;;;;9894264;24;20050;-67
2022/10/08 16:19:45;;;;;;;10.57;2.10;;;15.10;92.60;;;;;;9900329;24;20527;-62
2022/10/08 16:25:04;;;;;;;11.23;2.42;;;15.00;92.80;;;;;;9884437;29;20145;-63
2022/10/08 16:30:24;;;;;;;6.93;1.60;;;15.20;92.80;;;;;;9873214;29;20818;-63
2022/10/08 16:35:44;;;;;;;7.05;1.45;;;15.40;92.70;;;;;;9872897;29;20038;-63
2022/10/08 16:41:09;;;;;;;10.77;2.63;;;15.60;92.60;;;;;;9868687;29;20039;-63
2022/10/08 16:46:31;;;;;;;6.90;1.40;;;15.70;92.50;;;;;;9881550;29;20613;-63
2022/10/08 16:51:56;;;;;;;7.50;1.40;;;15.80;92.50;;;;;;9874111;29;20046;-64
2022/10/08 16:57:19;;;;;;;6.35;1.52;;;15.80;92.40;;;;;;9873032;29;20098;-68
2022/10/08 17:02:38;;;;;;;7.65;1.38;;;15.90;92.50;;;;;;9887627;29;20042;-67
2022/10/08 17:07:57;;;;;;;3.60;1.10;;;15.80;92.50;;;;;;9899600;24;20993;-69
2022/10/08 17:13:17;;;;;;;6.78;1.42;;;15.90;92.50;;;;;;9874757;29;20338;-64
2022/10/08 17:18:53;;;;;;;4.20;1.55;;;15.90;92.50;;;;;;9872011;29;20046;-64
2022/10/08 17:24:15;;;;;;;8.73;1.42;;;15.80;92.50;;;;;;9920563;29;20035;-64
2022/10/08 17:29:34;;;;;;;3.05;1.30;;;15.90;92.70;;;;;;9951984;29;20046;-63
2022/10/08 17:34:54;;;;;;;4.28;1.90;;;15.90;92.70;;;;;;9955392;29;20125;-65
2022/10/08 17:40:13;;;;;;;5.70;1.42;;;15.80;92.80;;;;;;9952095;29;20039;-63
2022/10/08 17:45:32;;;;;;;3.88;1.40;;;15.80;92.90;;;;;;9955022;29;20082;-65
2022/10/08 17:50:51;;;;;;;7.05;1.73;;;15.80;92.90;;;;;;9963720;29;20039;-71
2022/10/08 17:56:12;;;;;;;4.03;1.83;;;15.80;93.00;;;;;;9951440;29;20047;-63
2022/10/08 18:01:34;;;;;;;6.47;1.77;;;15.70;92.90;;;;;;9956423;29;20027;-68
2022/10/08 18:06:54;;;;;;;4.90;1.50;;;15.70;93.00;;;;;;9953922;29;20074;-64
2022/10/08 18:12:13;;;;;;;5.13;1.67;;;15.80;93.10;;;;;;9945026;29;20433;-63
2022/10/08 18:17:33;;;;;;;4.57;1.50;;;15.70;93.10;;;;;;9955030;29;20034;-62
2022/10/08 18:22:52;;;;;;;3.88;1.60;;;15.70;93.10;;;;;;9960147;29;20833;-65
2022/10/08 18:28:12;;;;;;;5.13;1.65;;;15.70;93.10;;;;;;9955323;29;20046;-67
2022/10/08 18:33:32;;;;;;;3.40;1.63;;;15.60;93.10;;;;;;9968177;29;20034;-62
2022/10/08 18:39:00;;;;;;;3.00;1.52;;;15.60;93.20;;;;;;9966590;29;20125;-66
2022/10/08 18:44:22;;;;;;;3.97;1.50;;;15.60;93.20;;;;;;9956600;29;20042;-64
2022/10/08 18:49:41;;;;;;;5.60;1.83;;;15.50;93.20;;;;;;9958101;29;20069;-62
2022/10/08 18:55:00;;;;;;;5.28;2.10;;;15.50;93.20;;;;;;9964369;29;20117;-65
2022/10/08 19:00:19;;;;;;;5.90;1.98;;;15.50;93.20;;;;;;9959433;29;20042;-67
2022/10/08 19:05:38;;;;;;;4.93;1.95;;;15.50;93.20;;;;;;9965350;29;20108;-62
2022/10/08 19:11:11;;;;;;;5.07;1.70;;;15.40;93.20;;;;;;9962308;29;20050;-66
2022/10/08 19:16:30;;;;;;;4.13;1.60;;;15.40;93.10;;;;;;9956863;29;20466;-65
2022/10/08 19:21:50;;;;;;;4.55;1.58;;;15.40;93.10;;;;;;9965547;29;20548;-66
2022/10/08 19:27:10;;;;;;;5.43;1.58;;;15.40;93.20;;;;;;9959786;29;20500;-66
2022/10/08 19:32:29;;;;;;;6.25;1.73;;;15.30;93.10;;;;;;9956929;29;20039;-67
2022/10/08 19:37:49;;;;;;;3.92;1.90;;;15.30;93.10;;;;;;9962278;29;20055;-65
2022/10/08 19:43:08;;;;;;;2.55;1.67;;;15.30;93.10;;;;;;9955731;29;20066;-62
2022/10/08 19:48:27;;;;;;;4.88;1.67;;;15.30;93.10;;;;;;9955469;29;20409;-65
2022/10/08 19:53:47;;;;;;;4.93;2.03;;;15.30;93.10;;;;;;9956845;29;20034;-62
2022/10/08 19:59:09;;;;;;;6.45;1.67;;;15.20;93.10;;;;;;9959801;29;20030;-63
2022/10/08 20:04:29;;;;;;;2.63;1.30;;;15.20;93.10;;;;;;9958207;29;20038;-67
2022/10/08 20:09:48;;;;;;;6.28;1.83;;;15.20;93.10;;;;;;9957184;29;20428;-64
2022/10/08 20:15:08;;;;;;;4.13;1.50;;;15.20;93.10;;;;;;9956171;29;20042;-66
2022/10/08 20:20:28;;;;;;;4.75;1.75;;;15.10;93.10;;;;;;9959660;29;20083;-64
2022/10/08 20:25:48;;;;;;;3.08;1.45;;;15.10;93.10;;;;;;9958504;29;20070;-69
2022/10/08 20:31:13;;;;;;;8.48;1.70;;;15.10;93.10;;;;;;9936848;29;20121;-62
2022/10/08 20:36:33;;;;;;;6.10;1.40;;;15.00;93.00;;;;;;9957765;29;20023;-66
2022/10/08 20:41:53;;;;;;;3.28;1.38;;;15.00;93.00;;;;;;9958524;29;20038;-63
2022/10/08 20:47:12;;;;;;;3.58;1.60;;;15.00;93.00;;;;;;9957993;29;20054;-65
2022/10/08 20:52:32;;;;;;;3.88;1.45;;;15.00;93.00;;;;;;9960312;29;20434;-68
2022/10/08 20:57:51;;;;;;;3.30;1.33;;;14.90;93.00;;;;;;9955192;29;20046;-67
2022/10/08 21:03:10;;;;;;;4.13;1.45;;;14.90;93.00;;;;;;9957685;29;20517;-64
2022/10/08 21:08:29;;;;;;;4.82;1.60;;;14.90;93.00;;;;;;9957407;29;20082;-64
2022/10/08 21:13:48;;;;;;;2.58;1.40;;;14.90;93.00;;;;;;9962770;29;20046;-67
2022/10/08 21:19:14;;;;;;;3.55;1.80;;;14.80;92.90;;;;;;9951808;29;20030;-69
2022/10/08 21:24:35;;;;;;;2.63;1.50;;;14.80;92.90;;;;;;9955829;29;20039;-67
2022/10/08 21:29:54;;;;;;;5.70;1.40;;;14.70;92.90;;;;;;9960145;29;20047;-65
2022/10/08 21:35:13;;;;;;;3.70;2.03;;;14.70;92.90;;;;;;9958139;29;20050;-69
2022/10/08 21:40:32;;;;;;;2.10;1.35;;;14.70;92.90;;;;;;9951439;29;20452;-68
2022/10/08 21:45:57;;;;;;;3.08;1.40;;;14.70;92.90;;;;;;9967882;29;20046;-66
2022/10/08 21:51:20;;;;;;;2.88;1.08;;;14.70;92.80;;;;;;9946414;29;20597;-66
2022/10/08 21:56:41;;;;;;;3.33;1.55;;;14.60;92.80;;;;;;9965618;29;20034;-69
2022/10/08 22:02:00;;;;;;;4.97;1.50;;;14.60;92.80;;;;;;9959123;29;20038;-70
2022/10/08 22:07:19;;;;;;;2.67;1.25;;;14.60;92.80;;;;;;9969098;29;20083;-64
2022/10/08 22:12:38;;;;;;;4.55;1.40;;;14.50;92.80;;;;;;9960807;29;20047;-67
2022/10/08 22:17:58;;;;;;;4.28;1.50;;;14.50;92.80;;;;;;9962664;29;20042;-70
2022/10/08 22:23:18;;;;;;;4.10;1.48;;;14.50;92.80;;;;;;9966497;29;20508;-62
2022/10/08 22:28:38;;;;;;;3.67;1.40;;;14.50;92.80;;;;;;9948540;29;20042;-68
2022/10/08 22:33:57;;;;;;;3.30;1.50;;;14.40;92.80;;;;;;9966431;29;20429;-70
2022/10/08 22:39:17;;;;;;;4.45;1.60;;;14.40;92.80;;;;;;9961997;29;20039;-64
2022/10/08 22:44:36;;;;;;;2.28;1.35;;;14.40;92.80;;;;;;9957219;29;20034;-64
2022/10/08 22:49:55;;;;;;;4.93;1.52;;;14.40;92.80;;;;;;9967609;29;20416;-65
2022/10/08 22:55:16;;;;;;;3.10;1.27;;;14.40;92.80;;;;;;9959017;29;20038;-66
2022/10/08 23:00:35;;;;;;;3.60;1.30;;;14.30;92.80;;;;;;9960085;29;20656;-64
2022/10/08 23:06:12;;;;;;;2.90;1.17;;;14.30;92.80;;;;;;9955266;29;20062;-64
2022/10/08 23:11:31;;;;;;;3.38;1.35;;;14.30;92.80;;;;;;9957142;29;20046;-63
2022/10/08 23:16:51;;;;;;;2.72;1.42;;;14.30;92.80;;;;;;9963372;29;20042;-65
2022/10/08 23:22:10;;;;;;;2.60;1.42;;;14.20;92.80;;;;;;9961028;29;20058;-63
2022/10/08 23:27:29;;;;;;;3.80;1.50;;;14.20;92.80;;;;;;9964143;29;20042;-62
2022/10/08 23:32:48;;;;;;;5.18;1.60;;;14.20;92.80;;;;;;9956447;29;20043;-64
2022/10/08 23:38:08;;;;;;;4.43;1.85;;;14.20;92.80;;;;;;9953059;29;20414;-65
2022/10/08 23:43:32;;;;;;;2.47;1.50;;;14.10;92.80;;;;;;9959184;29;20126;-69
2022/10/08 23:48:52;;;;;;;4.53;1.98;;;14.10;92.80;;;;;;9955964;29;20062;-63
2022/10/08 23:54:11;;;;;;;4.28;1.95;;;14.10;92.80;;;;;;9962604;29;20038;-70
2022/10/08 23:59:31;;;;;;;4.22;1.65;;;14.10;92.80;;;;;;9955823;29;20038;-63
